createdAt,value
2022-08-03T00:01:02.789Z,23.26
2022-08-03T00:03:30.931Z,22.36
2022-08-03T00:06:03.742Z,22.42
2022-08-03T00:08:34.452Z,22.95
2022-08-03T00:11:08.435Z,23.24
2022-08-03T00:13:36.768Z,23.03
2022-08-03T00:16:05.024Z,22.24
2022-08-03T00:18:33.050Z,23.12
2022-08-03T00:21:01.202Z,23.05
2022-08-03T00:23:51.616Z,22.99
2022-08-03T00:26:18.816Z,22.89
2022-08-03T00:28:46.859Z,23.33
2022-08-03T00:31:15.014Z,23.19
2022-08-03T00:33:59.132Z,22.87
2022-08-03T00:36:28.287Z,22.72
2022-08-03T00:38:56.554Z,22.39
2022-08-03T00:41:25.943Z,23.29
2022-08-03T00:43:54.015Z,22.85
2022-08-03T00:46:22.616Z,22.64
2022-08-03T00:48:51.211Z,23.26
2022-08-03T00:51:19.866Z,23.29
2022-08-03T00:53:48.104Z,23.18
2022-08-03T00:56:16.720Z,23.21
2022-08-03T00:58:47.549Z,22.89
2022-08-03T01:01:16.362Z,22.82
2022-08-03T01:03:45.828Z,22.88
2022-08-03T01:06:18.969Z,22.57
2022-08-03T01:08:53.684Z,21.93
2022-08-03T01:11:28.281Z,21.98
2022-08-03T01:14:19.205Z,21.88
2022-08-03T01:16:55.828Z,22.44
2022-08-03T01:19:38.393Z,22.35
2022-08-03T01:22:19.265Z,22.07
2022-08-03T01:24:57.769Z,22.76
2022-08-03T01:27:40.179Z,22.17
2022-08-03T01:30:12.044Z,22.05
2022-08-03T01:32:58.773Z,22.19
2022-08-03T01:35:36.714Z,22.27
2022-08-03T01:38:13.023Z,21.69
2022-08-03T01:40:44.607Z,22.32
2022-08-03T01:44:27.892Z,21.68
2022-08-03T01:46:09.884Z,22.53
2022-08-03T01:48:40.945Z,22.33
2022-08-03T01:51:11.760Z,21.80
2022-08-03T01:53:43.976Z,21.55
2022-08-03T01:56:13.690Z,22.06
2022-08-03T01:58:43.425Z,21.37
2022-08-03T02:01:14.917Z,22.20
2022-08-03T02:03:59.917Z,21.36
2022-08-03T02:07:00.438Z,22.04
2022-08-03T02:09:22.227Z,22.20
2022-08-03T02:11:52.508Z,22.21
2022-08-03T02:14:23.889Z,21.79
2022-08-03T02:16:54.139Z,22.05
2022-08-03T02:19:22.959Z,22.18
2022-08-03T02:21:56.721Z,21.70
2022-08-03T02:24:30.004Z,21.76
2022-08-03T02:26:59.842Z,22.33
2022-08-03T02:29:39.103Z,22.37
2022-08-03T02:32:11.960Z,21.72
2022-08-03T02:34:43.383Z,22.08
2022-08-03T02:37:14.323Z,21.72
2022-08-03T02:39:43.368Z,22.34
2022-08-03T02:42:15.615Z,22.24
2022-08-03T02:44:48.478Z,22.09
2022-08-03T02:47:22.025Z,22.22
2022-08-03T02:49:52.670Z,22.17
2022-08-03T02:52:24.614Z,21.62
2022-08-03T02:54:56.298Z,21.72
2022-08-03T02:57:27.811Z,21.05
2022-08-03T02:59:57.421Z,21.71
2022-08-03T03:02:27.921Z,21.90
2022-08-03T03:05:52.634Z,21.56
2022-08-03T03:07:53.014Z,22.13
2022-08-03T03:10:23.027Z,20.54
2022-08-03T03:12:53.639Z,21.21
2022-08-03T03:15:22.065Z,21.87
2022-08-03T03:17:53.638Z,21.66
2022-08-03T03:20:29.135Z,21.86
2022-08-03T03:23:01.255Z,21.65
2022-08-03T03:25:30.501Z,21.29
2022-08-03T03:27:59.291Z,20.95
2022-08-03T03:30:28.306Z,21.61
2022-08-03T03:32:59.258Z,21.48
2022-08-03T03:35:28.333Z,21.36
2022-08-03T03:37:56.657Z,21.95
2022-08-03T03:40:25.198Z,21.45
2022-08-03T03:42:53.407Z,21.56
2022-08-03T03:45:22.933Z,21.47
2022-08-03T03:47:51.381Z,22.03
2022-08-03T03:50:21.770Z,21.91
2022-08-03T03:52:49.831Z,21.34
2022-08-03T03:55:18.678Z,22.13
2022-08-03T03:57:47.076Z,21.46
2022-08-03T04:00:17.162Z,21.78
2022-08-03T04:02:45.502Z,21.67
2022-08-03T04:05:31.784Z,22.00
2022-08-03T04:08:20.705Z,21.46
2022-08-03T04:11:00.373Z,21.99
2022-08-03T04:13:33.044Z,22.04
2022-08-03T04:16:01.402Z,21.49
2022-08-03T04:18:32.358Z,22.04
2022-08-03T04:21:04.670Z,21.73
2022-08-03T04:23:36.916Z,21.74
2022-08-03T04:26:06.696Z,20.87
2022-08-03T04:28:36.940Z,20.85
2022-08-03T04:31:06.736Z,21.51
2022-08-03T04:33:36.755Z,21.63
2022-08-03T04:36:08.770Z,21.25
2022-08-03T04:38:42.969Z,21.87
2022-08-03T04:41:12.966Z,21.42
2022-08-03T04:43:41.917Z,21.21
2022-08-03T04:46:11.212Z,20.97
2022-08-03T04:48:44.385Z,21.24
2022-08-03T04:51:13.693Z,21.34
2022-08-03T04:53:44.677Z,20.92
2022-08-03T04:56:12.953Z,20.77
2022-08-03T04:58:41.051Z,21.38
2022-08-03T05:01:09.162Z,20.34
2022-08-03T05:03:37.286Z,21.47
2022-08-03T05:06:09.921Z,20.41
2022-08-03T05:08:46.395Z,21.62
2022-08-03T05:11:17.095Z,20.98
2022-08-03T05:13:45.428Z,21.13
2022-08-03T05:16:13.912Z,22.09
2022-08-03T05:18:42.348Z,22.14
2022-08-03T05:21:10.713Z,22.12
2022-08-03T05:23:38.787Z,22.12
2022-08-03T05:26:07.076Z,22.12
2022-08-03T05:28:36.534Z,22.11
2022-08-03T05:31:04.543Z,21.75
2022-08-03T05:33:33.911Z,22.36
2022-08-03T05:36:04.181Z,21.91
2022-08-03T05:38:34.702Z,22.41
2022-08-03T05:41:21.214Z,22.22
2022-08-03T05:43:54.251Z,22.06
2022-08-03T05:46:22.700Z,22.29
2022-08-03T05:48:51.171Z,22.52
2022-08-03T05:51:19.377Z,22.45
2022-08-03T05:53:47.404Z,22.67
2022-08-03T05:56:16.563Z,22.74
2022-08-03T05:58:46.042Z,22.78
2022-08-03T06:01:15.741Z,22.43
2022-08-03T06:03:43.950Z,21.78
2022-08-03T06:06:12.173Z,22.42
2022-08-03T06:08:40.458Z,22.94
2022-08-03T06:11:09.061Z,22.87
2022-08-03T06:13:37.542Z,22.37
2022-08-03T06:16:06.962Z,22.84
2022-08-03T06:18:36.672Z,23.27
2022-08-03T06:21:14.476Z,23.36
2022-08-03T06:23:54.039Z,23.45
2022-08-03T06:26:27.858Z,23.22
2022-08-03T06:28:56.539Z,23.10
2022-08-03T06:31:33.239Z,23.50
2022-08-03T06:34:34.827Z,23.20
2022-08-03T06:36:58.494Z,23.24
2022-08-03T06:39:30.282Z,23.54
2022-08-03T06:41:58.819Z,23.13
2022-08-03T06:44:26.851Z,23.70
2022-08-03T06:46:54.951Z,23.17
2022-08-03T06:49:24.643Z,23.52
2022-08-03T06:52:37.097Z,22.72
2022-08-03T06:54:49.224Z,23.33
2022-08-03T06:57:18.849Z,23.19
2022-08-03T07:00:08.706Z,23.54
2022-08-03T07:02:36.440Z,23.93
2022-08-03T07:05:06.997Z,23.94
2022-08-03T07:07:35.129Z,24.34
2022-08-03T07:10:03.439Z,23.79
2022-08-03T07:12:31.782Z,24.07
2022-08-03T07:15:03.208Z,24.43
2022-08-03T07:17:33.106Z,24.59
2022-08-03T07:20:03.841Z,24.17
2022-08-03T07:22:33.624Z,24.77
2022-08-03T07:25:01.949Z,24.81
2022-08-03T07:27:31.069Z,24.86
2022-08-03T07:30:00.007Z,24.53
2022-08-03T07:32:31.616Z,25.01
2022-08-03T07:35:01.231Z,25.32
2022-08-03T07:37:30.814Z,25.35
2022-08-03T07:40:00.717Z,24.29
2022-08-03T07:42:29.158Z,25.27
2022-08-03T07:44:57.707Z,25.41
2022-08-03T07:47:35.530Z,25.71
2022-08-03T07:50:05.507Z,25.74
2022-08-03T07:52:52.110Z,25.79
2022-08-03T07:55:23.357Z,25.82
2022-08-03T07:58:01.834Z,25.68
2022-08-03T08:00:29.846Z,25.84
2022-08-03T08:02:57.924Z,26.05
2022-08-03T08:05:26.108Z,25.94
2022-08-03T08:07:54.586Z,26.20
2022-08-03T08:10:27.191Z,25.86
2022-08-03T08:12:55.933Z,26.04
2022-08-03T08:15:24.395Z,26.34
2022-08-03T08:17:55.628Z,26.40
2022-08-03T08:20:31.853Z,25.91
2022-08-03T08:23:01.966Z,26.25
2022-08-03T08:25:33.053Z,26.38
2022-08-03T08:28:22.475Z,26.31
2022-08-03T08:30:51.894Z,26.35
2022-08-03T08:33:23.251Z,26.27
2022-08-03T08:35:53.113Z,26.42
2022-08-03T08:38:21.432Z,26.92
2022-08-03T08:40:51.433Z,26.79
2022-08-03T08:43:19.429Z,26.80
2022-08-03T08:45:50.879Z,26.74
2022-08-03T08:48:24.092Z,27.11
2022-08-03T08:50:54.578Z,26.89
2022-08-03T08:53:27.336Z,26.84
2022-08-03T08:56:01.412Z,27.02
2022-08-03T08:58:33.374Z,27.12
2022-08-03T09:01:01.502Z,27.36
2022-08-03T09:03:30.967Z,27.60
2022-08-03T09:06:02.351Z,27.52
2022-08-03T09:08:31.600Z,27.85
2022-08-03T09:11:01.188Z,28.03
2022-08-03T09:13:30.675Z,28.19
2022-08-03T09:16:15.386Z,28.31
2022-08-03T09:18:44.419Z,27.96
2022-08-03T09:21:36.266Z,28.36
2022-08-03T09:24:13.062Z,28.49
2022-08-03T09:26:54.164Z,28.73
2022-08-03T09:29:22.877Z,28.83
2022-08-03T09:31:50.988Z,28.75
2022-08-03T09:34:19.624Z,28.84
2022-08-03T09:36:48.623Z,28.92
2022-08-03T09:39:18.952Z,29.10
2022-08-03T09:41:48.825Z,29.24
2022-08-03T09:44:24.894Z,29.04
2022-08-03T09:46:56.209Z,28.75
2022-08-03T09:49:25.341Z,28.93
2022-08-03T09:52:31.737Z,28.53
2022-08-03T09:54:43.777Z,29.10
2022-08-03T09:57:23.177Z,28.33
2022-08-03T10:00:03.021Z,28.80
2022-08-03T10:02:31.203Z,28.41
2022-08-03T10:04:59.411Z,28.59
2022-08-03T10:07:27.492Z,28.66
2022-08-03T10:09:58.023Z,28.32
2022-08-03T10:12:48.191Z,28.53
2022-08-03T10:16:21.563Z,28.17
2022-08-03T10:18:07.056Z,28.21
2022-08-03T10:20:38.934Z,28.14
2022-08-03T10:23:09.184Z,28.39
2022-08-03T10:25:40.707Z,28.11
2022-08-03T10:28:12.151Z,28.37
2022-08-03T10:30:44.465Z,28.14
2022-08-03T10:33:51.013Z,28.03
2022-08-03T10:36:10.082Z,28.12
2022-08-03T10:38:41.763Z,28.19
2022-08-03T10:41:11.287Z,27.93
2022-08-03T10:43:49.137Z,27.25
2022-08-03T10:46:20.802Z,28.09
2022-08-03T10:48:52.566Z,27.84
2022-08-03T10:51:21.489Z,27.76
2022-08-03T10:53:54.546Z,27.91
2022-08-03T10:57:13.497Z,27.78
2022-08-03T11:00:00.519Z,27.73
2022-08-03T11:03:01.865Z,27.79
2022-08-03T11:05:32.632Z,27.89
2022-08-03T11:08:32.734Z,27.96
2022-08-03T11:11:03.237Z,28.37
2022-08-03T11:13:33.971Z,28.38
2022-08-03T11:16:22.042Z,28.65
2022-08-03T11:18:59.687Z,28.78
2022-08-03T11:22:00.317Z,28.65
2022-08-03T11:24:59.013Z,28.63
2022-08-03T11:27:29.307Z,28.73
2022-08-03T11:29:59.589Z,28.85
2022-08-03T11:32:52.646Z,28.47
2022-08-03T11:35:22.253Z,28.63
2022-08-03T11:38:09.108Z,28.62
2022-08-03T11:40:40.205Z,28.91
2022-08-03T11:43:12.309Z,28.95
2022-08-03T11:45:40.475Z,29.14
2022-08-03T11:48:16.891Z,29.31
2022-08-03T11:50:46.374Z,29.22
2022-08-03T11:53:19.315Z,29.30
2022-08-03T11:55:49.861Z,29.36
2022-08-03T11:59:19.067Z,28.89
2022-08-03T12:01:08.838Z,28.77
2022-08-03T12:03:37.341Z,28.91
2022-08-03T12:06:10.672Z,29.06
2022-08-03T12:08:41.023Z,29.15
2022-08-03T12:11:10.550Z,29.15
2022-08-03T12:14:45.072Z,28.85
2022-08-03T12:16:31.275Z,28.64
2022-08-03T12:19:01.629Z,28.49
2022-08-03T12:21:30.382Z,28.87
2022-08-03T12:24:00.974Z,29.00
2022-08-03T12:26:30.222Z,29.05
2022-08-03T12:28:58.458Z,28.85
2022-08-03T12:31:26.728Z,29.07
2022-08-03T12:33:59.843Z,29.15
2022-08-03T12:36:28.826Z,28.85
2022-08-03T12:38:58.070Z,28.80
2022-08-03T12:41:33.965Z,28.75
2022-08-03T12:44:03.590Z,28.67
2022-08-03T12:46:34.957Z,29.03
2022-08-03T12:49:08.321Z,29.46
2022-08-03T12:51:38.701Z,29.21
2022-08-03T12:54:07.261Z,29.28
2022-08-03T12:56:57.494Z,29.47
2022-08-03T12:59:32.152Z,29.43
2022-08-03T13:02:04.692Z,29.75
2022-08-03T13:04:39.069Z,29.62
2022-08-03T13:07:17.943Z,29.75
2022-08-03T13:09:48.393Z,29.59
2022-08-03T13:12:19.147Z,29.75
2022-08-03T13:14:49.239Z,29.58
2022-08-03T13:17:18.148Z,29.16
2022-08-03T13:19:47.623Z,29.45
2022-08-03T13:22:17.499Z,29.54
2022-08-03T13:24:47.813Z,29.27
2022-08-03T13:28:01.092Z,29.27
2022-08-03T13:30:06.497Z,29.29
2022-08-03T13:32:35.343Z,29.43
2022-08-03T13:35:04.134Z,29.42
2022-08-03T13:37:32.639Z,29.50
2022-08-03T13:40:03.081Z,29.52
2022-08-03T13:42:35.941Z,29.32
2022-08-03T13:45:05.945Z,29.37
2022-08-03T13:47:34.044Z,29.49
2022-08-03T13:50:03.166Z,29.53
2022-08-03T13:52:35.919Z,29.45
2022-08-03T13:55:05.653Z,29.11
2022-08-03T13:58:11.502Z,29.21
2022-08-03T14:00:27.895Z,29.30
2022-08-03T14:03:07.992Z,29.20
2022-08-03T14:05:40.992Z,29.20
2022-08-03T14:08:10.114Z,29.31
2022-08-03T14:10:39.843Z,29.42
2022-08-03T14:13:10.132Z,29.35
2022-08-03T14:15:38.788Z,29.42
2022-08-03T14:18:12.685Z,29.47
2022-08-03T14:20:47.877Z,29.38
2022-08-03T14:23:20.039Z,29.41
2022-08-03T14:25:51.911Z,29.51
2022-08-03T14:28:23.754Z,29.63
2022-08-03T14:30:52.857Z,29.48
2022-08-03T14:33:21.075Z,29.68
2022-08-03T14:35:49.941Z,29.65
2022-08-03T14:38:18.514Z,29.92
2022-08-03T14:40:46.968Z,29.91
2022-08-03T14:43:15.090Z,29.80
2022-08-03T14:45:44.450Z,29.86
2022-08-03T14:50:24.961Z,29.91
2022-08-03T14:51:00.739Z,29.84
2022-08-03T14:53:30.140Z,29.86
2022-08-03T14:55:58.270Z,29.64
2022-08-03T14:58:26.875Z,29.67
2022-08-03T15:00:57.128Z,29.63
2022-08-03T15:03:26.503Z,29.43
2022-08-03T15:05:55.818Z,29.55
2022-08-03T15:08:25.411Z,29.51
2022-08-03T15:10:53.766Z,29.47
2022-08-03T15:13:22.301Z,29.40
2022-08-03T15:15:51.887Z,29.51
2022-08-03T15:18:21.393Z,29.47
2022-08-03T15:20:50.903Z,29.49
2022-08-03T15:23:19.732Z,29.40
2022-08-03T15:26:29.083Z,28.91
2022-08-03T15:28:37.449Z,29.57
2022-08-03T15:31:06.634Z,29.57
2022-08-03T15:33:35.950Z,29.60
2022-08-03T15:36:05.141Z,29.74
2022-08-03T15:38:33.190Z,29.94
2022-08-03T15:41:01.296Z,29.89
2022-08-03T15:43:31.600Z,29.82
2022-08-03T15:46:28.239Z,29.78
2022-08-03T15:48:49.402Z,29.84
2022-08-03T15:51:17.481Z,29.85
2022-08-03T15:53:45.608Z,29.69
2022-08-03T15:56:18.267Z,29.19
2022-08-03T15:59:09.157Z,29.04
2022-08-03T16:01:35.703Z,29.29
2022-08-03T16:04:05.385Z,29.48
2022-08-03T16:06:35.895Z,29.61
2022-08-03T16:09:05.892Z,29.62
2022-08-03T16:11:52.598Z,29.71
2022-08-03T16:14:32.619Z,29.65
2022-08-03T16:17:04.298Z,29.74
2022-08-03T16:19:33.912Z,29.67
2022-08-03T16:22:03.511Z,29.77
2022-08-03T16:24:31.958Z,29.68
2022-08-03T16:27:00.458Z,29.64
2022-08-03T16:29:29.461Z,29.75
2022-08-03T16:31:57.533Z,29.51
2022-08-03T16:34:25.614Z,29.43
2022-08-03T16:36:56.099Z,29.40
2022-08-03T16:39:24.320Z,29.41
2022-08-03T16:42:00.367Z,29.37
2022-08-03T16:44:31.312Z,29.39
2022-08-03T16:46:59.912Z,29.25
2022-08-03T16:49:53.858Z,29.25
2022-08-03T16:52:17.920Z,29.24
2022-08-03T16:54:53.093Z,29.23
2022-08-03T16:57:58.327Z,29.17
2022-08-03T17:00:33.182Z,29.02
2022-08-03T17:03:04.404Z,28.94
2022-08-03T17:05:47.296Z,28.85
2022-08-03T17:08:26.277Z,28.94
2022-08-03T17:10:55.121Z,28.91
2022-08-03T17:13:39.285Z,28.74
2022-08-03T17:16:12.049Z,28.80
2022-08-03T17:18:48.129Z,28.76
2022-08-03T17:21:24.072Z,28.51
2022-08-03T17:23:58.506Z,28.38
2022-08-03T17:26:28.525Z,28.28
2022-08-03T17:29:11.218Z,28.25
2022-08-03T17:31:46.705Z,28.27
2022-08-03T17:34:19.501Z,28.24
2022-08-03T17:37:05.855Z,28.32
2022-08-03T17:39:57.578Z,28.32
2022-08-03T17:42:30.568Z,27.86
2022-08-03T17:45:01.645Z,28.10
2022-08-03T17:47:42.032Z,28.17
2022-08-03T17:50:24.390Z,28.17
2022-08-03T17:53:07.748Z,28.14
2022-08-03T17:55:55.586Z,28.19
2022-08-03T17:58:41.284Z,27.68
2022-08-03T18:02:03.110Z,27.99
2022-08-03T18:04:29.991Z,27.89
2022-08-03T18:07:11.897Z,27.71
2022-08-03T18:10:06.783Z,28.04
2022-08-03T18:12:46.082Z,28.03
2022-08-03T18:15:25.557Z,27.76
2022-08-03T18:18:02.528Z,26.66
2022-08-03T18:20:40.873Z,27.31
2022-08-03T18:23:24.743Z,27.76
2022-08-03T18:26:02.010Z,27.54
2022-08-03T18:28:32.453Z,27.36
2022-08-03T18:31:04.472Z,27.35
2022-08-03T18:34:16.919Z,27.77
2022-08-03T18:36:30.327Z,27.69
2022-08-03T18:39:00.446Z,27.79
2022-08-03T18:41:34.733Z,27.41
2022-08-03T18:44:09.599Z,27.17
2022-08-03T18:47:26.409Z,27.38
2022-08-03T18:50:04.725Z,26.72
2022-08-03T18:52:45.840Z,27.60
2022-08-03T18:55:33.192Z,27.62
2022-08-03T18:58:15.782Z,26.71
2022-08-03T19:00:56.529Z,27.20
2022-08-03T19:03:42.911Z,27.51
2022-08-03T19:06:20.265Z,27.32
2022-08-03T19:08:53.930Z,27.37
2022-08-03T19:11:28.049Z,27.06
2022-08-03T19:13:59.598Z,27.17
2022-08-03T19:16:34.772Z,27.41
2022-08-03T19:19:03.682Z,27.17
2022-08-03T19:21:36.242Z,27.29
2022-08-03T19:24:10.108Z,27.09
2022-08-03T19:26:39.698Z,27.27
2022-08-03T19:29:14.711Z,26.97
2022-08-03T19:31:54.446Z,26.67
2022-08-03T19:34:35.719Z,27.19
2022-08-03T19:37:06.664Z,26.67
2022-08-03T19:39:36.182Z,27.19
2022-08-03T19:42:12.231Z,26.76
2022-08-03T19:44:55.276Z,26.87
2022-08-03T19:47:30.274Z,27.04
2022-08-03T19:50:05.705Z,27.12
2022-08-03T19:52:42.383Z,27.15
2022-08-03T19:55:12.963Z,27.03
2022-08-03T19:57:46.611Z,26.91
2022-08-03T20:00:26.614Z,26.81
2022-08-03T20:03:00.094Z,26.68
2022-08-03T20:05:28.715Z,26.63
2022-08-03T20:08:13.214Z,26.88
2022-08-03T20:10:41.344Z,26.84
2022-08-03T20:13:09.729Z,26.69
2022-08-03T20:15:41.323Z,26.63
2022-08-03T20:18:16.846Z,26.63
2022-08-03T20:20:49.318Z,26.63
2022-08-03T20:23:21.134Z,26.60
2022-08-03T20:25:57.292Z,26.42
2022-08-03T20:28:32.717Z,26.42
2022-08-03T20:31:02.123Z,25.83
2022-08-03T20:33:46.762Z,25.76
2022-08-03T20:36:18.006Z,25.72
2022-08-03T20:38:47.850Z,26.18
2022-08-03T20:41:18.959Z,26.03
2022-08-03T20:43:49.361Z,26.11
2022-08-03T20:46:29.201Z,25.86
2022-08-03T20:49:06.997Z,25.54
2022-08-03T20:51:49.543Z,26.10
2022-08-03T20:54:29.478Z,25.41
2022-08-03T20:57:03.922Z,25.64
2022-08-03T20:59:50.785Z,25.73
2022-08-03T21:05:10.164Z,25.16
2022-08-03T21:08:05.463Z,25.27
2022-08-03T21:10:33.581Z,25.40
2022-08-03T21:13:07.897Z,25.42
2022-08-03T21:13:17.662Z,24.61
2022-08-03T21:16:11.629Z,25.18
2022-08-03T21:18:44.321Z,25.03
2022-08-03T21:21:16.787Z,25.21
2022-08-03T21:23:47.887Z,25.34
2022-08-03T21:26:19.116Z,25.56
2022-08-03T21:28:48.430Z,25.34
2022-08-03T21:31:19.771Z,25.11
2022-08-03T21:33:55.164Z,24.90
2022-08-03T21:36:25.371Z,24.89
2022-08-03T21:38:55.863Z,24.30
2022-08-03T21:41:26.369Z,23.75
2022-08-03T21:43:54.484Z,24.09
2022-08-03T21:46:24.063Z,24.23
2022-08-03T21:50:07.021Z,23.94
2022-08-03T21:51:50.126Z,24.51
2022-08-03T21:54:21.175Z,24.54
2022-08-03T21:56:52.441Z,24.38
2022-08-03T21:59:24.363Z,23.88
2022-08-03T22:01:55.404Z,23.95
2022-08-03T22:04:50.124Z,23.62
2022-08-03T22:07:17.805Z,23.62
2022-08-03T22:09:51.303Z,23.50
2022-08-03T22:12:22.268Z,23.68
2022-08-03T22:15:00.282Z,23.10
2022-08-03T22:17:55.682Z,23.80
2022-08-03T22:20:21.210Z,23.37
2022-08-03T22:22:57.039Z,23.99
2022-08-03T22:25:28.958Z,23.29
2022-08-03T22:27:58.315Z,23.49
2022-08-03T22:30:26.424Z,23.84
2022-08-03T22:32:56.546Z,23.44
2022-08-03T22:35:26.985Z,23.55
2022-08-03T22:37:59.344Z,22.93
2022-08-03T22:40:28.507Z,23.49
2022-08-03T22:42:57.465Z,23.45
2022-08-03T22:46:06.059Z,23.02
2022-08-03T22:48:15.046Z,23.09
2022-08-03T22:50:45.247Z,23.13
2022-08-03T22:53:18.533Z,23.54
2022-08-03T22:55:46.918Z,23.04
2022-08-03T22:58:16.673Z,23.58
2022-08-03T23:00:55.704Z,23.57
2022-08-03T23:03:26.018Z,22.89
2022-08-03T23:06:15.993Z,22.91
2022-08-03T23:08:47.874Z,23.67
2022-08-03T23:11:19.082Z,23.73
2022-08-03T23:13:53.436Z,23.44
2022-08-03T23:16:28.987Z,23.68
2022-08-03T23:18:59.220Z,23.53
2022-08-03T23:21:53.989Z,23.51
2022-08-03T23:24:26.035Z,23.57
2022-08-03T23:26:58.903Z,22.91
2022-08-03T23:29:27.771Z,23.18
2022-08-03T23:31:57.587Z,23.13
2022-08-03T23:34:44.789Z,22.56
2022-08-03T23:37:15.304Z,23.51
2022-08-03T23:39:46.560Z,23.31
2022-08-03T23:42:16.533Z,22.87
2022-08-03T23:44:46.123Z,23.09
2022-08-03T23:47:14.944Z,23.29
2022-08-03T23:49:43.144Z,23.09
2022-08-03T23:52:16.749Z,22.47
2022-08-03T23:54:59.297Z,22.37
2022-08-03T23:57:34.020Z,23.06
